Time;durP1;ratioP1;P1;durP2;ratioP2;P2;SDS_P1;SDS_P2;PMS_P1;PMS_P2;Temp;Humidity;BMP_temperature;BMP_pressure;BME280_temperature;BME280_humidity;BME280_pressure;Samples;Min_cycle;Max_cycle;Signal;HPM_P1;HPM_P2
2023/05/28 00:02:18;;;;;;;23.52;12.48;;;;;;;10.53;100.00;101886.31;5094649;28;20069;-48
2023/05/28 00:04:44;;;;;;;22.45;12.77;;;;;;;10.38;100.00;101891.63;5095586;28;20054;-47
2023/05/28 00:07:10;;;;;;;25.25;13.82;;;;;;;10.38;100.00;101890.75;5095651;28;20028;-46
2023/05/28 00:09:37;;;;;;;23.08;12.93;;;;;;;10.15;100.00;101893.06;5094295;28;20039;-50
2023/05/28 00:12:02;;;;;;;20.45;13.25;;;;;;;10.12;100.00;101887.78;5095591;28;20024;-48
2023/05/28 00:14:28;;;;;;;20.85;12.15;;;;;;;10.06;100.00;101882.34;5095052;28;20481;-47
2023/05/28 00:16:54;;;;;;;20.02;12.52;;;;;;;10.03;100.00;101877.03;5094674;28;20107;-50
2023/05/28 00:19:19;;;;;;;20.85;12.43;;;;;;;9.91;100.00;101879.03;5094746;28;20044;-47
2023/05/28 00:21:45;;;;;;;20.27;12.45;;;;;;;9.82;100.00;101872.59;5095109;28;20471;-47
2023/05/28 00:24:10;;;;;;;22.15;12.57;;;;;;;9.82;100.00;101874.28;5094231;28;20115;-49
2023/05/28 00:26:37;;;;;;;23.80;13.02;;;;;;;9.82;100.00;101872.59;5094998;28;20020;-48
2023/05/28 00:29:02;;;;;;;23.70;12.13;;;;;;;9.61;100.00;101876.69;5095215;28;20085;-47
2023/05/28 00:31:28;;;;;;;21.88;12.80;;;;;;;9.50;100.00;101879.63;5093440;28;20452;-48
2023/05/28 00:33:53;;;;;;;21.58;12.85;;;;;;;9.37;100.00;101882.34;5094886;28;20016;-47
2023/05/28 00:36:18;;;;;;;20.90;12.57;;;;;;;9.19;100.00;101887.44;5094844;28;20032;-47
2023/05/28 00:38:43;;;;;;;24.38;14.13;;;;;;;9.09;100.00;101896.38;5093931;28;20016;-51
2023/05/28 00:41:09;;;;;;;25.33;14.70;;;;;;;9.04;100.00;101897.81;5095041;28;20043;-50
2023/05/28 00:43:35;;;;;;;22.17;14.63;;;;;;;8.99;100.00;101895.00;5094364;28;20114;-47
2023/05/28 00:46:03;;;;;;;24.25;14.80;;;;;;;8.90;100.00;101895.38;5093932;28;20381;-49
2023/05/28 00:48:28;;;;;;;;;;;;;;;9.10;100.00;101897.25;5094796;28;20387;-47
2023/05/28 00:50:54;;;;;;;26.25;15.45;;;;;;;9.14;100.00;101888.88;5094729;28;19919;-47
2023/05/28 00:53:19;;;;;;;27.30;16.85;;;;;;;9.08;100.00;101881.75;5093642;28;20032;-47
2023/05/28 00:55:45;;;;;;;28.17;17.33;;;;;;;9.19;100.00;101893.47;5095188;28;20024;-47
2023/05/28 00:58:11;;;;;;;25.85;16.30;;;;;;;9.20;100.00;101882.34;5093690;28;20036;-47
2023/05/28 01:00:37;;;;;;;26.17;15.55;;;;;;;9.26;100.00;101878.34;5094056;28;20504;-49
2023/05/28 01:03:05;;;;;;;27.77;16.15;;;;;;;9.21;100.00;101871.28;5094540;28;20065;-46
2023/05/28 01:05:31;;;;;;;29.00;16.45;;;;;;;9.11;100.00;101883.59;5093390;28;20030;-47
2023/05/28 01:08:00;;;;;;;26.20;16.70;;;;;;;9.03;100.00;101883.19;5094288;28;20024;-48
2023/05/28 01:10:26;;;;;;;30.55;16.27;;;;;;;9.01;100.00;101883.13;5094125;28;20031;-46
2023/05/28 01:12:52;;;;;;;25.67;16.90;;;;;;;9.07;100.00;101878.25;5093588;28;20035;-48
2023/05/28 01:15:17;;;;;;;25.45;16.13;;;;;;;9.09;100.00;101880.03;5094085;28;20020;-49
2023/05/28 01:17:44;;;;;;;27.02;16.85;;;;;;;9.07;100.00;101877.41;5094045;28;20030;-50
2023/05/28 01:20:13;;;;;;;26.95;16.48;;;;;;;9.02;100.00;101876.28;5093557;28;20039;-48
2023/05/28 01:22:40;;;;;;;27.20;17.17;;;;;;;9.01;100.00;101882.22;5093732;28;20124;-47
2023/05/28 01:25:10;;;;;;;29.20;17.05;;;;;;;8.95;100.00;101879.31;5094112;28;20061;-46
2023/05/28 01:27:42;;;;;;;26.05;16.38;;;;;;;8.95;100.00;101884.44;5093147;28;20035;-48
2023/05/28 01:30:14;;;;;;;26.33;16.60;;;;;;;9.00;100.00;101891.63;5093817;28;20031;-48
2023/05/28 01:32:40;;;;;;;29.65;17.45;;;;;;;8.99;100.00;101886.41;5093796;28;20063;-47
2023/05/28 01:35:06;;;;;;;26.95;16.90;;;;;;;9.03;100.00;101880.63;5093071;28;20059;-47
2023/05/28 01:37:35;;;;;;;26.45;16.85;;;;;;;8.96;100.00;101882.00;5093605;28;20051;-46
2023/05/28 01:40:04;;;;;;;24.70;16.38;;;;;;;8.92;100.00;101880.03;5093866;28;20019;-47
2023/05/28 01:42:32;;;;;;;26.58;15.88;;;;;;;8.95;100.00;101892.16;5091868;28;20081;-49
2023/05/28 01:44:59;;;;;;;26.35;16.40;;;;;;;8.92;100.00;101884.31;5093765;28;20016;-49
2023/05/28 01:47:25;;;;;;;27.50;16.70;;;;;;;8.88;100.00;101879.00;5092489;28;20426;-46
2023/05/28 01:49:50;;;;;;;28.50;16.75;;;;;;;8.88;100.00;101880.69;5093696;28;20019;-46
2023/05/28 01:52:16;;;;;;;29.10;15.70;;;;;;;8.84;100.00;101882.19;5093390;28;20032;-46
2023/05/28 01:54:41;;;;;;;21.67;14.93;;;;;;;8.88;100.00;101881.56;5092945;28;20105;-48
2023/05/28 01:57:07;;;;;;;23.77;15.95;;;;;;;8.92;100.00;101879.16;5093527;28;20028;-47
2023/05/28 01:59:32;;;;;;;27.80;15.75;;;;;;;8.98;100.00;101877.78;5093121;28;20044;-47
2023/05/28 02:01:58;;;;;;;24.27;14.05;;;;;;;8.94;100.00;101875.00;5092766;28;20020;-50
2023/05/28 02:04:24;;;;;;;27.42;14.88;;;;;;;9.05;100.00;101871.28;5093255;28;20144;-49
2023/05/28 02:06:50;;;;;;;23.83;14.57;;;;;;;8.89;100.00;101873.03;5093436;28;20024;-46
2023/05/28 02:09:16;;;;;;;20.90;14.07;;;;;;;8.95;100.00;101872.50;5092030;28;20514;-46
2023/05/28 02:11:41;;;;;;;23.60;14.27;;;;;;;8.96;100.00;101868.22;5093246;28;20016;-49
2023/05/28 02:14:07;;;;;;;25.83;13.77;;;;;;;9.10;100.00;101856.97;5093263;28;20032;-46
2023/05/28 02:16:32;;;;;;;23.17;13.55;;;;;;;9.12;100.00;101855.38;5091966;28;20096;-48
2023/05/28 02:18:59;;;;;;;24.25;13.45;;;;;;;9.05;100.00;101853.28;5093035;28;20111;-46
2023/05/28 02:21:24;;;;;;;20.65;13.57;;;;;;;9.25;100.00;101849.16;5093054;28;20085;-50
2023/05/28 02:23:51;;;;;;;21.65;13.30;;;;;;;8.96;100.00;101853.69;5092294;28;20028;-48
2023/05/28 02:26:17;;;;;;;21.75;12.80;;;;;;;8.99;100.00;101858.13;5092823;28;20051;-48
2023/05/28 02:28:43;;;;;;;23.98;13.63;;;;;;;8.86;100.00;101856.59;5093020;28;20028;-47
2023/05/28 02:31:09;;;;;;;20.88;13.73;;;;;;;8.80;100.00;101851.13;5092170;28;20031;-46
2023/05/28 02:33:35;;;;;;;21.17;13.32;;;;;;;8.76;100.00;101857.78;5092857;28;20032;-46
2023/05/28 02:36:00;;;;;;;25.35;13.52;;;;;;;8.69;100.00;101863.41;5093148;28;20020;-46
2023/05/28 02:38:25;;;;;;;21.23;13.88;;;;;;;8.71;100.00;101864.34;5091768;28;20484;-49
2023/05/28 02:40:50;;;;;;;23.70;13.70;;;;;;;8.66;100.00;101858.09;5092927;28;20032;-47
2023/05/28 02:43:16;;;;;;;22.90;13.07;;;;;;;8.61;100.00;101856.97;5092590;28;20096;-49
2023/05/28 02:45:41;;;;;;;24.63;12.40;;;;;;;8.60;100.00;101855.19;5091983;28;20028;-49
2023/05/28 02:48:07;;;;;;;20.98;13.43;;;;;;;8.61;100.00;101854.38;5092758;28;20047;-50
2023/05/28 02:50:32;;;;;;;22.95;13.65;;;;;;;8.67;100.00;101859.88;5091887;28;20032;-50
2023/05/28 02:52:57;;;;;;;23.95;14.40;;;;;;;8.62;100.00;101853.59;5092923;28;20024;-47
2023/05/28 02:55:22;;;;;;;21.70;13.65;;;;;;;8.60;100.00;101862.91;5095612;28;20032;-47
2023/05/28 02:57:48;;;;;;;23.00;13.63;;;;;;;8.50;100.00;101861.53;5096072;28;20020;-47
2023/05/28 03:00:14;;;;;;;20.80;13.75;;;;;;;8.44;100.00;101862.03;5096818;28;20031;-46
2023/05/28 03:02:39;;;;;;;22.42;14.13;;;;;;;8.41;100.00;101869.56;5096513;28;20028;-47
2023/05/28 03:05:05;;;;;;;21.08;14.02;;;;;;;8.41;100.00;101867.00;5095914;28;20383;-48
2023/05/28 03:07:30;;;;;;;27.77;13.43;;;;;;;8.40;100.00;101870.38;5096575;28;20024;-46
2023/05/28 03:09:57;;;;;;;22.10;13.57;;;;;;;8.41;100.00;101869.56;5096699;28;20114;-45
2023/05/28 03:12:23;;;;;;;22.58;13.48;;;;;;;8.38;100.00;101870.28;5095628;28;20020;-51
2023/05/28 03:14:48;;;;;;;23.25;14.02;;;;;;;8.44;100.00;101866.28;5096404;28;20521;-47
2023/05/28 03:17:13;;;;;;;21.17;12.90;;;;;;;8.39;100.00;101860.88;5096304;28;20111;-46
2023/05/28 03:19:38;;;;;;;25.63;13.82;;;;;;;8.36;100.00;101856.47;5095218;28;20487;-48
2023/05/28 03:22:04;;;;;;;23.27;13.23;;;;;;;8.40;100.00;101863.56;5096263;28;20119;-48
2023/05/28 03:24:30;;;;;;;21.63;12.25;;;;;;;8.30;100.00;101857.81;5096065;28;20028;-47
2023/05/28 03:26:57;;;;;;;23.23;13.15;;;;;;;8.35;100.00;101864.09;5095628;28;20043;-49
2023/05/28 03:29:22;;;;;;;21.42;13.18;;;;;;;8.24;100.00;101859.25;5095801;28;20020;-47
2023/05/28 03:31:47;;;;;;;25.10;13.52;;;;;;;8.19;100.00;101862.38;5096141;28;20066;-51
2023/05/28 03:34:13;;;;;;;21.80;13.13;;;;;;;8.15;100.00;101863.88;5095568;28;20459;-50
2023/05/28 03:36:40;;;;;;;23.13;13.23;;;;;;;8.14;100.00;101856.97;5095807;28;20043;-51
2023/05/28 03:39:07;;;;;;;21.80;13.45;;;;;;;8.20;100.00;101856.44;5096137;28;20455;-51
2023/05/28 03:41:32;;;;;;;21.17;13.82;;;;;;;8.19;100.00;101860.69;5095141;28;20543;-50
2023/05/28 03:43:59;;;;;;;20.33;12.80;;;;;;;8.19;100.00;101870.94;5095940;28;20507;-51
2023/05/28 03:46:24;;;;;;;22.98;13.35;;;;;;;8.20;100.00;101865.03;5095508;28;20024;-51
2023/05/28 03:48:50;;;;;;;28.50;14.10;;;;;;;8.22;100.00;101866.00;5095210;28;20026;-50
2023/05/28 03:51:16;;;;;;;26.30;13.73;;;;;;;8.27;100.00;101865.38;5095595;28;20028;-47
2023/05/28 03:53:41;;;;;;;22.52;13.68;;;;;;;8.30;100.00;101871.56;5095901;28;20039;-50
2023/05/28 03:56:06;;;;;;;26.05;14.23;;;;;;;8.33;100.00;101869.16;5095186;28;20024;-51
2023/05/28 03:58:32;;;;;;;24.33;13.93;;;;;;;8.37;100.00;101875.34;5095463;28;20031;-51
2023/05/28 04:00:57;;;;;;;24.13;14.05;;;;;;;8.37;100.00;101877.91;5094806;28;20107;-51
2023/05/28 04:03:22;;;;;;;28.15;14.45;;;;;;;8.43;100.00;101875.69;5095468;28;20031;-51
2023/05/28 04:05:47;;;;;;;23.25;13.50;;;;;;;8.44;100.00;101879.13;5094568;28;20032;-51
2023/05/28 04:08:13;;;;;;;29.98;13.88;;;;;;;8.47;100.00;101877.66;5094839;28;20020;-51
2023/05/28 04:10:38;;;;;;;31.17;14.88;;;;;;;8.52;100.00;101883.03;5094999;28;20032;-48
2023/05/28 04:13:03;;;;;;;24.77;15.05;;;;;;;8.50;100.00;101882.09;5095378;28;20024;-50
2023/05/28 04:15:28;;;;;;;26.70;14.38;;;;;;;8.55;100.00;101876.38;5094293;28;20020;-50
2023/05/28 04:17:54;;;;;;;22.33;13.48;;;;;;;8.57;100.00;101884.16;5095357;28;20049;-50
2023/05/28 04:20:20;;;;;;;24.83;14.23;;;;;;;8.62;100.00;101885.31;5095256;28;20465;-49
2023/05/28 04:22:46;;;;;;;27.92;14.82;;;;;;;8.71;100.00;101884.91;5094648;28;20031;-50
2023/05/28 04:25:12;;;;;;;30.98;15.57;;;;;;;8.77;100.00;101877.53;5095210;28;20035;-49
2023/05/28 04:27:37;;;;;;;26.27;14.48;;;;;;;8.80;100.00;101882.84;5094811;28;20028;-48
2023/05/28 04:30:03;;;;;;;25.67;14.57;;;;;;;8.85;100.00;101886.53;5094205;28;20035;-50
2023/05/28 04:32:31;;;;;;;33.22;14.73;;;;;;;8.93;100.00;101883.50;5094966;28;20028;-50
2023/05/28 04:34:56;;;;;;;24.80;14.40;;;;;;;8.99;100.00;101888.97;5095213;28;20024;-51
2023/05/28 04:37:21;;;;;;;28.52;15.77;;;;;;;9.07;100.00;101890.25;5094039;28;20021;-50
2023/05/28 04:39:48;;;;;;;24.92;14.10;;;;;;;9.17;100.00;101896.78;5095004;28;20059;-50
2023/05/28 04:42:16;;;;;;;31.77;14.85;;;;;;;9.27;100.00;101892.97;5094960;28;20028;-51
2023/05/28 04:44:45;;;;;;;26.83;13.90;;;;;;;9.28;100.00;101897.31;5093998;28;20033;-51
2023/05/28 04:47:11;;;;;;;27.67;14.00;;;;;;;9.38;100.00;101895.28;5094756;28;20467;-51
2023/05/28 04:49:37;;;;;;;30.40;14.85;;;;;;;9.47;100.00;101897.44;5094526;28;20034;-51
2023/05/28 04:52:02;;;;;;;32.25;15.32;;;;;;;9.56;100.00;101899.63;5094062;28;20016;-51
2023/05/28 04:54:28;;;;;;;30.85;16.00;;;;;;;9.66;100.00;101894.13;5094503;28;20059;-51
2023/05/28 04:56:53;;;;;;;26.83;14.63;;;;;;;9.74;100.00;101897.09;5094745;28;20406;-50
2023/05/28 04:59:18;;;;;;;28.52;15.05;;;;;;;9.85;100.00;101901.09;5093382;28;20028;-50
2023/05/28 05:01:44;;;;;;;28.63;14.75;;;;;;;9.96;100.00;101895.56;5094653;28;20016;-50
2023/05/28 05:04:09;;;;;;;27.05;15.18;;;;;;;10.05;100.00;101896.03;5093999;28;20110;-51
2023/05/28 05:06:35;;;;;;;27.02;14.75;;;;;;;10.12;100.00;101894.63;5094250;28;20031;-48
2023/05/28 05:09:01;;;;;;;30.02;15.70;;;;;;;10.24;100.00;101902.03;5094142;28;20024;-51
2023/05/28 05:11:26;;;;;;;28.33;14.60;;;;;;;10.32;100.00;101905.91;5093129;28;20028;-51
2023/05/28 05:13:52;;;;;;;26.60;15.18;;;;;;;10.40;100.00;101898.56;5094138;28;20055;-51
2023/05/28 05:16:18;;;;;;;28.73;14.65;;;;;;;10.51;100.00;101898.25;5093809;28;20456;-50
2023/05/28 05:18:44;;;;;;;25.45;14.98;;;;;;;10.61;100.00;101899.53;5093302;28;20128;-51
2023/05/28 05:21:12;;;;;;;28.60;14.55;;;;;;;10.71;100.00;101899.16;5094020;28;20074;-51
2023/05/28 05:23:38;;;;;;;31.00;15.10;;;;;;;10.79;100.00;101896.91;5093814;28;20058;-51
2023/05/28 05:26:03;;;;;;;30.05;14.25;;;;;;;10.88;100.00;101904.19;5093291;28;20114;-50
2023/05/28 05:28:28;;;;;;;25.38;14.52;;;;;;;10.95;100.00;101900.19;5093486;28;20080;-51
2023/05/28 05:30:53;;;;;;;28.10;14.57;;;;;;;11.03;100.00;101904.03;5093980;28;20043;-51
2023/05/28 05:33:19;;;;;;;23.88;14.05;;;;;;;11.17;100.00;101912.38;5092921;28;20024;-51
2023/05/28 05:35:44;;;;;;;25.65;14.25;;;;;;;11.31;100.00;101905.22;5093876;28;20464;-51
2023/05/28 05:38:10;;;;;;;27.83;14.80;;;;;;;11.40;100.00;101913.38;5093924;28;20035;-50
2023/05/28 05:40:35;;;;;;;25.10;14.05;;;;;;;11.49;100.00;101915.47;5092766;28;20093;-50
2023/05/28 05:43:01;;;;;;;23.13;13.95;;;;;;;11.64;100.00;101920.41;5093682;28;20066;-51
2023/05/28 05:45:26;;;;;;;27.42;14.63;;;;;;;11.75;100.00;101924.34;5093553;28;20102;-49
2023/05/28 05:47:51;;;;;;;24.05;13.88;;;;;;;11.94;100.00;101926.00;5092956;28;20024;-50
2023/05/28 05:50:17;;;;;;;25.80;13.52;;;;;;;12.07;100.00;101921.34;5093257;28;20375;-50
2023/05/28 05:52:42;;;;;;;23.27;13.13;;;;;;;12.16;100.00;101927.78;5093584;28;20030;-50
2023/05/28 05:55:08;;;;;;;26.13;13.38;;;;;;;12.30;100.00;101930.03;5092628;28;20028;-51
2023/05/28 05:57:36;;;;;;;25.05;13.32;;;;;;;12.42;100.00;101925.34;5093087;28;20024;-51
2023/05/28 06:00:03;;;;;;;25.02;12.68;;;;;;;12.46;100.00;101922.06;5093590;28;20024;-50
2023/05/28 06:02:28;;;;;;;24.50;13.35;;;;;;;12.65;100.00;101922.75;5092563;28;20028;-51
2023/05/28 06:04:54;;;;;;;23.05;13.10;;;;;;;12.72;100.00;101929.94;5093444;28;20095;-51
2023/05/28 06:07:20;;;;;;;28.70;13.00;;;;;;;12.79;100.00;101925.88;5092919;28;20487;-51
2023/05/28 06:09:45;;;;;;;21.63;12.00;;;;;;;12.84;100.00;101925.22;5092485;28;20050;-50
2023/05/28 06:12:10;;;;;;;26.45;13.55;;;;;;;13.04;100.00;101924.19;5093155;28;20521;-50
2023/05/28 06:14:36;;;;;;;23.38;12.48;;;;;;;13.15;100.00;101926.34;5092227;28;20061;-51
2023/05/28 06:17:02;;;;;;;24.88;13.18;;;;;;;13.28;100.00;101927.66;5093294;28;20035;-51
2023/05/28 06:19:29;;;;;;;23.05;12.43;;;;;;;13.37;100.00;101929.75;5092771;28;20055;-49
2023/05/28 06:21:54;;;;;;;22.67;12.15;;;;;;;13.52;100.00;101920.75;5092416;28;20068;-51
2023/05/28 06:24:19;;;;;;;22.92;12.57;;;;;;;13.77;100.00;101920.75;5092891;28;20024;-51
2023/05/28 06:26:45;;;;;;;25.35;12.15;;;;;;;13.93;100.00;101924.75;5092799;28;20020;-49
2023/05/28 06:29:10;;;;;;;23.58;12.73;;;;;;;14.13;100.00;101917.59;5091680;28;20035;-47
2023/05/28 06:31:36;;;;;;;23.30;12.90;;;;;;;14.34;100.00;101913.94;5092591;28;20100;-50
2023/05/28 06:34:02;;;;;;;24.80;11.70;;;;;;;14.49;97.50;101916.13;5093209;28;20103;-48
2023/05/28 06:36:28;;;;;;;21.67;11.57;;;;;;;14.71;96.52;101915.09;5091816;28;20069;-50
2023/05/28 06:38:53;;;;;;;19.88;11.65;;;;;;;15.01;97.03;101916.81;5093121;28;20025;-51
2023/05/28 06:41:19;;;;;;;21.75;11.18;;;;;;;15.31;94.53;101915.91;5092742;28;20059;-50
2023/05/28 06:43:46;;;;;;;18.45;10.10;;;;;;;15.51;92.03;101910.38;5092305;28;20133;-50
2023/05/28 06:46:12;;;;;;;16.65;10.43;;;;;;;15.75;90.30;101912.72;5093011;28;20066;-47
2023/05/28 06:48:37;;;;;;;20.80;10.60;;;;;;;15.85;86.98;101913.88;5092639;28;20028;-51
2023/05/28 06:51:02;;;;;;;18.73;9.95;;;;;;;15.93;87.82;101920.13;5091838;28;20028;-51
2023/05/28 06:53:28;;;;;;;21.45;11.68;;;;;;;16.15;89.70;101911.13;5092530;28;20464;-51
2023/05/28 06:55:53;;;;;;;17.17;9.52;;;;;;;16.38;87.18;101916.84;5092630;28;20097;-52
2023/05/28 06:58:18;;;;;;;22.48;10.35;;;;;;;16.53;84.92;101911.13;5091787;28;20099;-51
2023/05/28 07:00:43;;;;;;;18.27;9.70;;;;;;;16.80;85.10;101915.19;5092824;28;20028;-50
2023/05/28 07:03:09;;;;;;;21.95;9.48;;;;;;;16.90;83.58;101917.16;5092757;28;20028;-48
2023/05/28 07:05:36;;;;;;;18.02;9.63;;;;;;;16.90;80.88;101908.41;5091659;28;20086;-52
2023/05/28 07:08:02;;;;;;;19.23;10.02;;;;;;;16.91;82.41;101918.91;5092648;28;20038;-48
2023/05/28 07:10:27;;;;;;;19.10;9.60;;;;;;;16.83;81.47;101922.16;5092086;28;20028;-51
2023/05/28 07:12:52;;;;;;;16.48;9.40;;;;;;;16.77;81.97;101921.19;5092104;28;20055;-51
2023/05/28 07:15:18;;;;;;;20.02;10.07;;;;;;;16.70;80.65;101924.50;5092406;28;20028;-52
2023/05/28 07:17:43;;;;;;;18.95;9.82;;;;;;;16.71;83.75;101930.59;5092483;28;20418;-50
2023/05/28 07:20:09;;;;;;;16.38;9.70;;;;;;;16.68;83.40;101931.41;5091911;28;20024;-51
2023/05/28 07:22:34;;;;;;;20.27;10.65;;;;;;;16.72;84.24;101933.22;5092100;28;20081;-51
2023/05/28 07:25:00;;;;;;;19.50;9.90;;;;;;;16.78;83.34;101933.38;5091689;28;20099;-52
2023/05/28 07:27:25;;;;;;;21.58;11.43;;;;;;;17.06;86.72;101933.09;5092353;28;20020;-51
2023/05/28 07:29:50;;;;;;;18.02;10.18;;;;;;;17.17;83.00;101936.81;5092171;28;20036;-51
2023/05/28 07:32:16;;;;;;;20.85;10.57;;;;;;;17.33;81.33;101943.16;5091520;28;20055;-50
2023/05/28 07:34:41;;;;;;;18.77;9.95;;;;;;;17.49;81.44;101939.13;5092427;28;20372;-52
2023/05/28 07:37:06;;;;;;;20.60;10.43;;;;;;;17.39;81.29;101940.69;5092282;28;20025;-47
2023/05/28 07:39:32;;;;;;;20.10;10.55;;;;;;;17.30;81.14;101940.53;5091257;28;20357;-51
2023/05/28 07:41:57;;;;;;;18.60;10.25;;;;;;;17.23;80.39;101946.44;5094348;28;20028;-49
2023/05/28 07:44:23;;;;;;;20.55;11.00;;;;;;;17.13;81.33;101945.38;5095622;28;20440;-50
2023/05/28 07:46:48;;;;;;;17.80;10.27;;;;;;;17.01;80.68;101940.81;5095054;28;20035;-50
2023/05/28 07:49:13;;;;;;;21.55;11.30;;;;;;;16.87;81.69;101939.59;5095789;28;20036;-51
2023/05/28 07:51:38;;;;;;;19.50;10.77;;;;;;;16.74;84.02;101949.75;5095487;28;20050;-50
2023/05/28 07:54:04;;;;;;;21.95;10.65;;;;;;;16.55;83.34;101943.28;5094990;28;20486;-49
2023/05/28 07:56:29;;;;;;;22.33;10.98;;;;;;;16.39;84.22;101947.25;5095374;28;20042;-51
2023/05/28 07:58:55;;;;;;;20.65;11.07;;;;;;;16.23;84.76;101948.63;5095868;28;20383;-50
2023/05/28 08:01:21;;;;;;;22.15;11.43;;;;;;;16.09;86.08;101945.66;5094774;28;20024;-51
2023/05/28 08:03:51;;;;;;;21.88;11.27;;;;;;;15.99;86.71;101942.81;5095708;28;20039;-51
2023/05/28 08:06:19;;;;;;;21.90;11.82;;;;;;;15.84;87.09;101944.19;5095369;28;20027;-51
2023/05/28 08:08:45;;;;;;;24.23;11.48;;;;;;;15.75;88.34;101946.50;5094709;28;20077;-52
2023/05/28 08:11:13;;;;;;;19.38;10.85;;;;;;;15.69;88.83;101946.38;5095603;28;20062;-51
2023/05/28 08:13:38;;;;;;;17.27;11.10;;;;;;;15.82;89.78;101935.47;5095258;28;20036;-50
2023/05/28 08:16:04;;;;;;;22.50;12.70;;;;;;;16.06;90.75;101935.22;5094668;28;20035;-50
2023/05/28 08:18:30;;;;;;;22.73;11.68;;;;;;;16.35;89.95;101932.41;5094910;28;20068;-52
2023/05/28 08:20:55;;;;;;;21.80;11.65;;;;;;;16.64;89.26;101929.56;5095296;28;20109;-51
2023/05/28 08:23:21;;;;;;;23.08;11.65;;;;;;;17.01;87.53;101930.38;5094108;28;20099;-51
2023/05/28 08:25:46;;;;;;;24.33;10.77;;;;;;;17.40;86.63;101920.72;5095077;28;20468;-48
2023/05/28 08:28:11;;;;;;;36.17;11.75;;;;;;;17.75;85.76;101926.56;5094297;28;20028;-51
2023/05/28 08:30:37;;;;;;;17.35;10.30;;;;;;;17.92;80.25;101928.56;5094884;28;20050;-51
2023/05/28 08:33:02;;;;;;;18.50;8.25;;;;;;;18.33;77.05;101920.53;5095337;28;20062;-48
2023/05/28 08:35:27;;;;;;;17.20;7.03;;;;;;;18.56;69.59;101917.38;5093997;28;20022;-51
2023/05/28 08:37:53;;;;;;;18.15;7.68;;;;;;;18.66;67.99;101927.09;5094848;28;20113;-50
2023/05/28 08:40:18;;;;;;;15.77;6.97;;;;;;;18.88;70.32;101924.75;5094486;28;20031;-51
2023/05/28 08:42:43;;;;;;;16.17;7.20;;;;;;;18.96;66.07;101928.38;5093935;28;20035;-51
2023/05/28 08:45:10;;;;;;;18.42;5.53;;;;;;;19.08;63.14;101928.53;5094877;28;20028;-50
2023/05/28 08:47:36;;;;;;;13.77;6.57;;;;;;;19.28;63.07;101920.03;5094506;28;20604;-51
2023/05/28 08:50:05;;;;;;;12.97;5.83;;;;;;;19.39;62.60;101923.63;5094032;28;20043;-49
2023/05/28 08:52:32;;;;;;;11.40;6.13;;;;;;;19.54;61.70;101924.63;5093992;28;20093;-51
2023/05/28 08:55:01;;;;;;;14.85;5.88;;;;;;;19.60;61.57;101922.09;5094831;28;20024;-52
2023/05/28 08:57:28;;;;;;;13.43;5.75;;;;;;;19.86;61.85;101927.56;5093532;28;20486;-51
2023/05/28 08:59:54;;;;;;;16.25;6.63;;;;;;;19.92;60.28;101926.72;5094547;28;20028;-52
2023/05/28 09:02:24;;;;;;;18.42;6.57;;;;;;;20.00;60.44;101917.22;5094247;28;20020;-49
2023/05/28 09:04:49;;;;;;;18.45;6.93;;;;;;;20.21;61.14;101919.09;5093653;28;20028;-52
2023/05/28 09:07:15;;;;;;;16.02;6.88;;;;;;;20.35;59.81;101913.97;5094364;28;20035;-50
2023/05/28 09:09:41;;;;;;;16.73;6.90;;;;;;;20.51;57.23;101914.03;5094195;28;20032;-52
2023/05/28 09:12:19;;;;;;;14.25;6.15;;;;;;;20.53;57.14;101917.56;5093623;28;20495;-47
2023/05/28 09:14:45;;;;;;;13.00;5.53;;;;;;;20.79;55.01;101896.75;5094302;28;20081;-50
2023/05/28 09:17:10;;;;;;;13.40;5.50;;;;;;;20.78;50.45;101909.84;5094384;28;20020;-51
2023/05/28 09:19:36;;;;;;;12.45;4.53;;;;;;;21.02;50.19;101901.19;5092838;28;20446;-52
2023/05/28 09:22:03;;;;;;;11.10;4.43;;;;;;;20.97;46.90;101909.03;5094315;28;20034;-52
2023/05/28 09:24:30;;;;;;;11.02;5.18;;;;;;;21.12;48.33;101909.94;5092916;28;20345;-49
2023/05/28 09:26:57;;;;;;;12.55;4.47;;;;;;;21.11;47.70;101900.31;5094082;28;20077;-47
2023/05/28 09:29:24;;;;;;;11.10;3.80;;;;;;;21.26;45.44;101896.88;5093535;28;20031;-50
2023/05/28 09:31:57;;;;;;;11.40;4.32;;;;;;;21.55;46.21;101912.69;5093114;28;20034;-51
2023/05/28 09:34:30;;;;;;;10.65;4.00;;;;;;;21.70;47.24;101912.69;5093389;28;20039;-49
2023/05/28 09:37:06;;;;;;;9.13;3.90;;;;;;;21.80;44.00;101917.94;5093707;28;20492;-51
2023/05/28 09:39:32;;;;;;;11.23;4.47;;;;;;;22.10;46.51;101913.53;5092740;28;20039;-48
2023/05/28 09:42:09;;;;;;;10.95;4.50;;;;;;;22.30;46.03;101906.50;5093775;28;20020;-49
2023/05/28 09:44:36;;;;;;;12.80;5.03;;;;;;;22.43;45.66;101901.25;5093381;28;20385;-49
2023/05/28 09:47:01;;;;;;;11.50;4.55;;;;;;;22.40;44.26;101910.03;5092738;28;20436;-50
2023/05/28 09:49:30;;;;;;;8.48;4.38;;;;;;;22.49;45.55;101909.09;5093317;28;20103;-48
2023/05/28 09:51:58;;;;;;;10.85;4.40;;;;;;;22.63;44.54;101902.06;5093580;28;20028;-48
2023/05/28 09:54:28;;;;;;;10.88;4.43;;;;;;;22.91;43.42;101906.31;5092491;28;20032;-48
2023/05/28 09:56:56;;;;;;;11.18;4.40;;;;;;;23.23;42.05;101900.00;5093482;28;20476;-50
2023/05/28 09:59:25;;;;;;;18.95;5.38;;;;;;;23.34;42.07;101898.19;5093027;28;20085;-48
2023/05/28 10:02:13;;;;;;;30.00;6.05;;;;;;;23.52;42.35;101894.56;5092862;28;20031;-49
2023/05/28 10:04:39;;;;;;;14.05;4.75;;;;;;;23.89;40.08;101896.88;5092367;28;20030;-48
2023/05/28 10:07:05;;;;;;;9.13;4.77;;;;;;;24.25;39.87;101897.44;5092739;28;20024;-50
2023/05/28 10:09:32;;;;;;;12.43;4.60;;;;;;;24.19;38.00;101894.84;5092833;28;20022;-49
2023/05/28 10:12:16;;;;;;;10.15;4.65;;;;;;;24.44;41.49;101905.13;5093186;28;20422;-49
2023/05/28 10:14:42;;;;;;;11.75;4.50;;;;;;;24.96;37.40;101904.50;5092708;28;20032;-50
2023/05/28 10:17:08;;;;;;;14.48;4.93;;;;;;;25.58;36.10;101908.03;5093089;28;20392;-52
2023/05/28 10:19:34;;;;;;;11.80;4.67;;;;;;;25.90;36.94;101896.00;5092646;28;20040;-50
2023/05/28 10:21:59;;;;;;;13.00;4.55;;;;;;;26.40;34.78;101902.16;5092471;28;20277;-50
2023/05/28 10:24:25;;;;;;;10.27;4.60;;;;;;;26.26;33.48;101902.44;5092770;28;20028;-49
2023/05/28 10:26:53;;;;;;;12.88;4.40;;;;;;;25.83;34.96;101904.97;5093015;28;20103;-49
2023/05/28 10:29:18;;;;;;;12.13;4.80;;;;;;;25.95;35.43;101900.34;5091867;28;20391;-50
2023/05/28 10:31:44;;;;;;;13.70;4.45;;;;;;;26.12;35.51;101892.13;5093186;28;20455;-50
2023/05/28 10:34:16;;;;;;;14.70;4.57;;;;;;;26.26;35.51;101894.50;5093112;28;20016;-49
2023/05/28 10:36:54;;;;;;;14.80;4.40;;;;;;;26.36;34.80;101894.31;5092089;28;20034;-47
2023/05/28 10:39:20;;;;;;;13.43;4.43;;;;;;;26.04;33.99;101898.41;5092746;28;20028;-49
2023/05/28 10:41:45;;;;;;;11.15;4.15;;;;;;;25.61;33.67;101905.31;5092432;28;20026;-49
2023/05/28 10:44:11;;;;;;;11.85;3.97;;;;;;;25.26;35.42;101904.94;5092823;28;20031;-50
2023/05/28 10:46:40;;;;;;;10.95;4.38;;;;;;;24.96;34.76;101906.28;5092616;28;20391;-50
2023/05/28 10:49:16;;;;;;;9.43;4.00;;;;;;;24.74;34.88;101913.56;5091934;28;20036;-49
2023/05/28 10:51:49;;;;;;;9.38;4.00;;;;;;;24.59;36.86;101907.56;5093032;28;20050;-48
2023/05/28 10:54:40;;;;;;;8.43;4.13;;;;;;;24.47;38.52;101915.63;5092879;28;20020;-51
2023/05/28 10:57:09;;;;;;;10.38;4.20;;;;;;;24.27;37.12;101905.31;5091973;28;20384;-50
2023/05/28 10:59:42;;;;;;;11.10;4.05;;;;;;;24.38;36.53;101915.75;5092462;28;20077;-49
2023/05/28 11:02:07;;;;;;;9.80;3.92;;;;;;;24.55;34.54;101905.00;5092937;28;20059;-50
2023/05/28 11:04:35;;;;;;;9.50;4.43;;;;;;;24.70;35.76;101909.22;5091593;28;20056;-50
2023/05/28 11:07:00;;;;;;;13.85;4.20;;;;;;;24.86;34.86;101904.66;5092804;28;20020;-50
2023/05/28 11:09:26;;;;;;;7.97;3.90;;;;;;;25.10;35.61;101903.41;5092318;28;20026;-50